sensor_id;sensor_type;location;lat;lon;timestamp;pressure;altitude;pressure_sealevel;temperature;humidity
79586;BME280;69054;50.866;4.636;2023-08-31T00:02:11;100513.09;;;8.12;100.00
79586;BME280;69054;50.866;4.636;2023-08-31T00:04:36;100514.78;;;8.13;100.00
79586;BME280;69054;50.866;4.636;2023-08-31T00:07:02;100511.78;;;8.08;100.00
79586;BME280;69054;50.866;4.636;2023-08-31T00:09:28;100510.47;;;8.04;100.00
79586;BME280;69054;50.866;4.636;2023-08-31T00:11:54;100511.50;;;8.03;100.00
79586;BME280;69054;50.866;4.636;2023-08-31T00:14:22;100512.25;;;7.96;100.00
79586;BME280;69054;50.866;4.636;2023-08-31T00:16:47;100516.63;;;7.97;100.00
79586;BME280;69054;50.866;4.636;2023-08-31T00:19:14;100511.56;;;7.94;100.00
79586;BME280;69054;50.866;4.636;2023-08-31T00:21:40;100503.59;;;7.93;100.00
79586;BME280;69054;50.866;4.636;2023-08-31T00:24:05;100511.09;;;7.91;100.00
79586;BME280;69054;50.866;4.636;2023-08-31T00:26:30;100509.25;;;8.06;100.00
79586;BME280;69054;50.866;4.636;2023-08-31T00:28:57;100508.22;;;8.07;100.00
79586;BME280;69054;50.866;4.636;2023-08-31T00:31:23;100503.03;;;7.97;100.00
79586;BME280;69054;50.866;4.636;2023-08-31T00:33:48;100504.09;;;7.96;100.00
79586;BME280;69054;50.866;4.636;2023-08-31T00:36:14;100501.19;;;7.98;100.00
79586;BME280;69054;50.866;4.636;2023-08-31T00:38:40;100505.75;;;7.97;100.00
79586;BME280;69054;50.866;4.636;2023-08-31T00:41:05;100499.75;;;8.02;100.00
79586;BME280;69054;50.866;4.636;2023-08-31T00:43:31;100504.19;;;8.03;100.00
79586;BME280;69054;50.866;4.636;2023-08-31T00:45:57;100508.09;;;8.00;100.00
79586;BME280;69054;50.866;4.636;2023-08-31T00:48:23;100506.34;;;8.08;100.00
79586;BME280;69054;50.866;4.636;2023-08-31T00:50:50;100504.28;;;8.25;100.00
79586;BME280;69054;50.866;4.636;2023-08-31T00:53:16;100510.56;;;8.40;100.00
79586;BME280;69054;50.866;4.636;2023-08-31T00:55:45;100498.84;;;8.40;100.00
79586;BME280;69054;50.866;4.636;2023-08-31T00:58:11;100502.13;;;8.35;100.00
79586;BME280;69054;50.866;4.636;2023-08-31T01:01:01;100500.16;;;8.29;100.00
79586;BME280;69054;50.866;4.636;2023-08-31T01:08:52;100509.53;;;8.26;100.00
79586;BME280;69054;50.866;4.636;2023-08-31T01:11:28;100507.28;;;8.15;100.00
79586;BME280;69054;50.866;4.636;2023-08-31T01:14:17;100505.97;;;8.11;100.00
79586;BME280;69054;50.866;4.636;2023-08-31T01:16:48;100502.97;;;8.06;100.00
79586;BME280;69054;50.866;4.636;2023-08-31T01:22:16;100514.50;;;8.08;100.00
79586;BME280;69054;50.866;4.636;2023-08-31T01:24:44;100508.09;;;8.00;100.00
79586;BME280;69054;50.866;4.636;2023-08-31T01:27:10;100509.81;;;8.02;100.00
79586;BME280;69054;50.866;4.636;2023-08-31T01:29:35;100508.66;;;7.96;100.00
79586;BME280;69054;50.866;4.636;2023-08-31T01:32:05;100510.28;;;7.90;100.00
79586;BME280;69054;50.866;4.636;2023-08-31T01:34:30;100500.97;;;7.85;100.00
79586;BME280;69054;50.866;4.636;2023-08-31T01:36:58;100514.56;;;7.85;100.00
79586;BME280;69054;50.866;4.636;2023-08-31T01:39:39;100515.78;;;7.82;100.00
79586;BME280;69054;50.866;4.636;2023-08-31T01:42:07;100513.25;;;7.80;100.00
79586;BME280;69054;50.866;4.636;2023-08-31T01:44:36;100518.75;;;7.72;100.00
79586;BME280;69054;50.866;4.636;2023-08-31T01:47:04;100523.34;;;7.72;100.00
79586;BME280;69054;50.866;4.636;2023-08-31T01:49:39;100526.75;;;7.74;100.00
79586;BME280;69054;50.866;4.636;2023-08-31T01:52:05;100527.84;;;7.64;100.00
79586;BME280;69054;50.866;4.636;2023-08-31T01:54:31;100526.88;;;7.57;100.00
79586;BME280;69054;50.866;4.636;2023-08-31T01:56:57;100522.34;;;7.50;100.00
79586;BME280;69054;50.866;4.636;2023-08-31T01:59:22;100523.56;;;7.47;100.00
79586;BME280;69054;50.866;4.636;2023-08-31T02:01:48;100529.78;;;7.56;100.00
79586;BME280;69054;50.866;4.636;2023-08-31T02:04:13;100526.19;;;7.55;100.00
79586;BME280;69054;50.866;4.636;2023-08-31T02:06:38;100529.03;;;7.62;100.00
79586;BME280;69054;50.866;4.636;2023-08-31T02:09:04;100532.13;;;7.59;100.00
79586;BME280;69054;50.866;4.636;2023-08-31T02:11:30;100535.94;;;7.50;100.00
79586;BME280;69054;50.866;4.636;2023-08-31T02:13:57;100538.53;;;7.43;100.00
79586;BME280;69054;50.866;4.636;2023-08-31T02:16:23;100536.31;;;7.46;100.00
79586;BME280;69054;50.866;4.636;2023-08-31T02:18:48;100540.59;;;7.41;100.00
79586;BME280;69054;50.866;4.636;2023-08-31T02:21:13;100544.31;;;7.40;100.00
79586;BME280;69054;50.866;4.636;2023-08-31T02:23:39;100547.91;;;7.40;100.00
79586;BME280;69054;50.866;4.636;2023-08-31T02:26:04;100546.88;;;7.41;100.00
79586;BME280;69054;50.866;4.636;2023-08-31T02:28:30;100534.13;;;7.42;100.00
79586;BME280;69054;50.866;4.636;2023-08-31T02:31:00;100550.31;;;7.58;100.00
79586;BME280;69054;50.866;4.636;2023-08-31T02:33:26;100540.75;;;7.62;100.00
79586;BME280;69054;50.866;4.636;2023-08-31T02:35:51;100544.88;;;7.58;100.00
79586;BME280;69054;50.866;4.636;2023-08-31T02:38:16;100546.34;;;7.84;100.00
79586;BME280;69054;50.866;4.636;2023-08-31T02:40:45;100546.94;;;7.94;100.00
79586;BME280;69054;50.866;4.636;2023-08-31T02:43:10;100548.38;;;8.05;100.00
79586;BME280;69054;50.866;4.636;2023-08-31T02:45:36;100538.84;;;8.24;100.00
79586;BME280;69054;50.866;4.636;2023-08-31T02:48:01;100533.41;;;8.39;100.00
79586;BME280;69054;50.866;4.636;2023-08-31T02:50:29;100538.22;;;8.52;100.00
79586;BME280;69054;50.866;4.636;2023-08-31T02:52:54;100539.91;;;8.53;100.00
79586;BME280;69054;50.866;4.636;2023-08-31T02:55:19;100539.25;;;8.51;100.00
79586;BME280;69054;50.866;4.636;2023-08-31T02:57:46;100540.84;;;8.45;100.00
79586;BME280;69054;50.866;4.636;2023-08-31T03:00:12;100540.69;;;8.39;100.00
79586;BME280;69054;50.866;4.636;2023-08-31T03:02:39;100544.59;;;8.44;100.00
79586;BME280;69054;50.866;4.636;2023-08-31T03:05:04;100535.84;;;8.49;100.00
79586;BME280;69054;50.866;4.636;2023-08-31T03:07:30;100535.06;;;8.40;100.00
79586;BME280;69054;50.866;4.636;2023-08-31T03:09:55;100538.91;;;8.31;100.00
79586;BME280;69054;50.866;4.636;2023-08-31T03:12:21;100531.22;;;8.20;100.00
79586;BME280;69054;50.866;4.636;2023-08-31T03:14:46;100538.38;;;8.21;100.00
79586;BME280;69054;50.866;4.636;2023-08-31T03:17:11;100532.81;;;8.14;100.00
79586;BME280;69054;50.866;4.636;2023-08-31T03:19:37;100527.28;;;8.07;100.00
79586;BME280;69054;50.866;4.636;2023-08-31T03:22:02;100536.56;;;7.98;100.00
79586;BME280;69054;50.866;4.636;2023-08-31T03:24:28;100535.41;;;7.92;100.00
79586;BME280;69054;50.866;4.636;2023-08-31T03:26:53;100534.81;;;7.82;100.00
79586;BME280;69054;50.866;4.636;2023-08-31T03:29:18;100543.34;;;7.79;100.00
79586;BME280;69054;50.866;4.636;2023-08-31T03:31:44;100537.25;;;7.77;100.00
79586;BME280;69054;50.866;4.636;2023-08-31T03:34:09;100540.06;;;7.84;100.00
79586;BME280;69054;50.866;4.636;2023-08-31T03:36:35;100552.69;;;7.99;100.00
79586;BME280;69054;50.866;4.636;2023-08-31T03:39:00;100541.16;;;8.12;100.00
79586;BME280;69054;50.866;4.636;2023-08-31T03:41:25;100552.06;;;8.27;100.00
79586;BME280;69054;50.866;4.636;2023-08-31T03:43:51;100550.31;;;8.34;100.00
79586;BME280;69054;50.866;4.636;2023-08-31T03:46:16;100553.09;;;8.41;100.00
79586;BME280;69054;50.866;4.636;2023-08-31T03:48:41;100552.19;;;8.49;100.00
79586;BME280;69054;50.866;4.636;2023-08-31T03:51:07;100543.47;;;8.53;100.00
79586;BME280;69054;50.866;4.636;2023-08-31T03:53:32;100543.56;;;8.60;100.00
79586;BME280;69054;50.866;4.636;2023-08-31T03:55:58;100550.88;;;8.60;100.00
79586;BME280;69054;50.866;4.636;2023-08-31T03:58:23;100543.09;;;8.57;100.00
79586;BME280;69054;50.866;4.636;2023-08-31T04:00:49;100547.69;;;8.56;100.00
79586;BME280;69054;50.866;4.636;2023-08-31T04:03:15;100550.22;;;8.58;100.00
79586;BME280;69054;50.866;4.636;2023-08-31T04:05:41;100552.19;;;8.64;100.00
79586;BME280;69054;50.866;4.636;2023-08-31T04:08:06;100553.97;;;8.72;100.00
79586;BME280;69054;50.866;4.636;2023-08-31T04:10:32;100555.56;;;8.81;100.00
79586;BME280;69054;50.866;4.636;2023-08-31T04:12:57;100558.47;;;8.79;100.00
79586;BME280;69054;50.866;4.636;2023-08-31T04:15:23;100562.06;;;8.80;100.00
79586;BME280;69054;50.866;4.636;2023-08-31T04:17:48;100571.00;;;8.74;100.00
79586;BME280;69054;50.866;4.636;2023-08-31T04:20:15;100563.94;;;8.64;100.00
79586;BME280;69054;50.866;4.636;2023-08-31T04:22:40;100560.66;;;8.54;100.00
79586;BME280;69054;50.866;4.636;2023-08-31T04:25:06;100566.72;;;8.41;100.00
79586;BME280;69054;50.866;4.636;2023-08-31T04:27:31;100569.44;;;8.26;100.00
79586;BME280;69054;50.866;4.636;2023-08-31T04:30:00;100567.53;;;8.12;100.00
79586;BME280;69054;50.866;4.636;2023-08-31T04:32:27;100576.13;;;8.00;100.00
79586;BME280;69054;50.866;4.636;2023-08-31T04:34:53;100579.31;;;7.89;100.00
79586;BME280;69054;50.866;4.636;2023-08-31T04:37:18;100574.09;;;7.79;100.00
79586;BME280;69054;50.866;4.636;2023-08-31T04:39:44;100581.97;;;7.74;100.00
79586;BME280;69054;50.866;4.636;2023-08-31T04:42:09;100579.34;;;7.66;100.00
79586;BME280;69054;50.866;4.636;2023-08-31T04:44:34;100585.59;;;7.67;100.00
79586;BME280;69054;50.866;4.636;2023-08-31T04:47:00;100588.16;;;7.68;100.00
79586;BME280;69054;50.866;4.636;2023-08-31T04:49:26;100587.59;;;7.73;100.00
79586;BME280;69054;50.866;4.636;2023-08-31T04:51:52;100581.50;;;7.71;100.00
79586;BME280;69054;50.866;4.636;2023-08-31T04:54:17;100581.81;;;8.14;100.00
79586;BME280;69054;50.866;4.636;2023-08-31T04:56:43;100584.56;;;8.29;100.00
79586;BME280;69054;50.866;4.636;2023-08-31T04:59:08;100584.56;;;8.29;100.00
79586;BME280;69054;50.866;4.636;2023-08-31T05:01:34;100585.13;;;8.39;100.00
79586;BME280;69054;50.866;4.636;2023-08-31T05:03:59;100589.53;;;8.40;100.00
79586;BME280;69054;50.866;4.636;2023-08-31T05:06:25;100582.22;;;8.41;100.00
79586;BME280;69054;50.866;4.636;2023-08-31T05:08:51;100592.41;;;8.47;100.00
79586;BME280;69054;50.866;4.636;2023-08-31T05:11:16;100592.88;;;8.65;100.00
79586;BME280;69054;50.866;4.636;2023-08-31T05:13:42;100591.53;;;8.61;100.00
79586;BME280;69054;50.866;4.636;2023-08-31T05:16:10;100596.16;;;8.61;100.00
79586;BME280;69054;50.866;4.636;2023-08-31T05:18:37;100602.81;;;8.88;100.00
79586;BME280;69054;50.866;4.636;2023-08-31T05:21:03;100606.56;;;8.87;100.00
79586;BME280;69054;50.866;4.636;2023-08-31T05:23:29;100606.50;;;8.95;100.00
79586;BME280;69054;50.866;4.636;2023-08-31T05:25:55;100605.34;;;9.04;100.00
79586;BME280;69054;50.866;4.636;2023-08-31T05:28:22;100613.56;;;9.26;100.00
79586;BME280;69054;50.866;4.636;2023-08-31T05:30:52;100610.16;;;9.39;100.00
79586;BME280;69054;50.866;4.636;2023-08-31T05:33:18;100612.72;;;9.62;100.00
79586;BME280;69054;50.866;4.636;2023-08-31T05:35:44;100613.91;;;9.74;100.00
79586;BME280;69054;50.866;4.636;2023-08-31T05:38:09;100616.31;;;9.84;100.00
79586;BME280;69054;50.866;4.636;2023-08-31T05:40:35;100621.44;;;9.94;100.00
79586;BME280;69054;50.866;4.636;2023-08-31T05:43:00;100622.16;;;10.03;100.00
79586;BME280;69054;50.866;4.636;2023-08-31T05:45:25;100619.06;;;10.12;100.00
79586;BME280;69054;50.866;4.636;2023-08-31T05:47:51;100623.81;;;10.25;100.00
79586;BME280;69054;50.866;4.636;2023-08-31T05:50:16;100624.78;;;10.39;100.00
79586;BME280;69054;50.866;4.636;2023-08-31T05:52:42;100622.75;;;10.48;100.00
79586;BME280;69054;50.866;4.636;2023-08-31T05:55:09;100620.13;;;10.61;100.00
79586;BME280;69054;50.866;4.636;2023-08-31T05:57:35;100629.47;;;10.80;100.00
79586;BME280;69054;50.866;4.636;2023-08-31T06:00:01;100624.38;;;11.06;100.00
79586;BME280;69054;50.866;4.636;2023-08-31T06:02:26;100631.16;;;11.16;100.00
79586;BME280;69054;50.866;4.636;2023-08-31T06:04:51;100642.38;;;11.35;100.00
79586;BME280;69054;50.866;4.636;2023-08-31T06:07:17;100646.84;;;11.49;100.00
79586;BME280;69054;50.866;4.636;2023-08-31T06:09:42;100647.06;;;11.54;100.00
79586;BME280;69054;50.866;4.636;2023-08-31T06:12:08;100639.75;;;11.62;100.00
79586;BME280;69054;50.866;4.636;2023-08-31T06:14:33;100646.31;;;11.87;100.00
79586;BME280;69054;50.866;4.636;2023-08-31T06:16:59;100648.31;;;12.20;100.00
79586;BME280;69054;50.866;4.636;2023-08-31T06:19:24;100648.69;;;12.31;100.00
79586;BME280;69054;50.866;4.636;2023-08-31T06:21:49;100647.84;;;12.50;100.00
79586;BME280;69054;50.866;4.636;2023-08-31T06:24:15;100648.50;;;12.66;100.00
79586;BME280;69054;50.866;4.636;2023-08-31T06:26:41;100653.50;;;12.82;100.00
79586;BME280;69054;50.866;4.636;2023-08-31T06:29:06;100653.91;;;12.92;100.00
79586;BME280;69054;50.866;4.636;2023-08-31T06:31:34;100661.22;;;13.25;100.00
79586;BME280;69054;50.866;4.636;2023-08-31T06:33:59;100667.91;;;13.43;99.55
79586;BME280;69054;50.866;4.636;2023-08-31T06:36:24;100669.78;;;13.56;98.77
79586;BME280;69054;50.866;4.636;2023-08-31T06:38:50;100678.59;;;13.64;97.69
79586;BME280;69054;50.866;4.636;2023-08-31T06:41:15;100674.69;;;13.86;96.83
79586;BME280;69054;50.866;4.636;2023-08-31T06:43:41;100678.06;;;13.88;95.87
79586;BME280;69054;50.866;4.636;2023-08-31T06:46:06;100680.34;;;13.97;96.96
79586;BME280;69054;50.866;4.636;2023-08-31T06:48:32;100681.00;;;14.25;95.43
79586;BME280;69054;50.866;4.636;2023-08-31T06:50:57;100688.91;;;14.40;93.69
79586;BME280;69054;50.866;4.636;2023-08-31T06:53:22;100685.59;;;14.63;93.19
79586;BME280;69054;50.866;4.636;2023-08-31T06:55:48;100686.84;;;14.60;92.05
79586;BME280;69054;50.866;4.636;2023-08-31T06:58:13;100691.31;;;14.61;91.78
79586;BME280;69054;50.866;4.636;2023-08-31T07:00:39;100690.28;;;14.81;91.75
79586;BME280;69054;50.866;4.636;2023-08-31T07:03:04;100681.97;;;15.06;89.56
79586;BME280;69054;50.866;4.636;2023-08-31T07:05:34;100686.63;;;15.42;89.57
79586;BME280;69054;50.866;4.636;2023-08-31T07:08:03;100692.84;;;15.56;85.78
79586;BME280;69054;50.866;4.636;2023-08-31T07:10:28;100686.88;;;15.59;88.48
79586;BME280;69054;50.866;4.636;2023-08-31T07:12:54;100697.94;;;15.71;87.36
79586;BME280;69054;50.866;4.636;2023-08-31T07:15:19;100700.19;;;15.81;87.08
79586;BME280;69054;50.866;4.636;2023-08-31T07:17:44;100689.16;;;15.63;84.38
79586;BME280;69054;50.866;4.636;2023-08-31T07:20:11;100700.41;;;15.79;85.25
79586;BME280;69054;50.866;4.636;2023-08-31T07:22:37;100693.84;;;16.11;84.84
79586;BME280;69054;50.866;4.636;2023-08-31T07:25:04;100698.09;;;16.37;82.65
79586;BME280;69054;50.866;4.636;2023-08-31T07:27:31;100699.31;;;16.65;82.43
79586;BME280;69054;50.866;4.636;2023-08-31T07:29:56;100709.31;;;16.78;80.91
79586;BME280;69054;50.866;4.636;2023-08-31T07:32:21;100708.84;;;17.05;79.39
79586;BME280;69054;50.866;4.636;2023-08-31T07:34:47;100716.41;;;17.09;78.50
79586;BME280;69054;50.866;4.636;2023-08-31T07:37:13;100712.06;;;17.49;77.24
79586;BME280;69054;50.866;4.636;2023-08-31T07:39:38;100707.94;;;17.51;76.22
79586;BME280;69054;50.866;4.636;2023-08-31T07:42:05;100706.78;;;17.47;76.06
79586;BME280;69054;50.866;4.636;2023-08-31T07:44:30;100721.56;;;17.29;77.19
79586;BME280;69054;50.866;4.636;2023-08-31T07:46:56;100720.28;;;17.61;75.48
79586;BME280;69054;50.866;4.636;2023-08-31T07:49:21;100721.19;;;17.90;75.00
79586;BME280;69054;50.866;4.636;2023-08-31T07:51:47;100724.75;;;18.02;74.28
79586;BME280;69054;50.866;4.636;2023-08-31T07:54:19;100730.53;;;18.01;73.51
79586;BME280;69054;50.866;4.636;2023-08-31T07:56:45;100727.06;;;18.22;73.18
79586;BME280;69054;50.866;4.636;2023-08-31T07:59:10;100736.34;;;18.16;73.97
79586;BME280;69054;50.866;4.636;2023-08-31T08:01:36;100742.00;;;17.81;73.62
79586;BME280;69054;50.866;4.636;2023-08-31T08:04:01;100734.63;;;17.46;75.58
79586;BME280;69054;50.866;4.636;2023-08-31T08:06:26;100735.72;;;17.09;77.17
79586;BME280;69054;50.866;4.636;2023-08-31T08:08:52;100736.56;;;17.98;75.36
79586;BME280;69054;50.866;4.636;2023-08-31T08:11:18;100746.06;;;18.82;72.09
79586;BME280;69054;50.866;4.636;2023-08-31T08:13:43;100743.91;;;18.84;71.41
79586;BME280;69054;50.866;4.636;2023-08-31T08:16:08;100740.47;;;18.93;69.41
79586;BME280;69054;50.866;4.636;2023-08-31T08:18:34;100745.59;;;19.02;68.58
79586;BME280;69054;50.866;4.636;2023-08-31T08:20:59;100749.47;;;19.40;67.74
79586;BME280;69054;50.866;4.636;2023-08-31T08:23:25;100745.47;;;19.92;67.01
79586;BME280;69054;50.866;4.636;2023-08-31T08:25:50;100752.31;;;20.33;64.98
79586;BME280;69054;50.866;4.636;2023-08-31T08:28:16;100756.47;;;20.36;64.66
79586;BME280;69054;50.866;4.636;2023-08-31T08:30:41;100765.66;;;20.64;62.92
79586;BME280;69054;50.866;4.636;2023-08-31T08:33:10;100763.38;;;20.88;61.71
79586;BME280;69054;50.866;4.636;2023-08-31T08:35:37;100761.25;;;20.41;63.97
79586;BME280;69054;50.866;4.636;2023-08-31T08:38:03;100767.53;;;20.58;62.16
79586;BME280;69054;50.866;4.636;2023-08-31T08:40:30;100768.31;;;20.53;62.28
79586;BME280;69054;50.866;4.636;2023-08-31T08:43:00;100776.00;;;20.68;63.07
79586;BME280;69054;50.866;4.636;2023-08-31T08:45:28;100770.97;;;20.43;62.10
79586;BME280;69054;50.866;4.636;2023-08-31T08:47:57;100770.44;;;20.68;61.40
79586;BME280;69054;50.866;4.636;2023-08-31T08:50:24;100775.50;;;21.09;59.87
79586;BME280;69054;50.866;4.636;2023-08-31T08:52:50;100774.56;;;20.66;61.95
79586;BME280;69054;50.866;4.636;2023-08-31T08:55:16;100782.81;;;20.33;63.35
79586;BME280;69054;50.866;4.636;2023-08-31T08:57:41;100783.47;;;21.00;60.59
79586;BME280;69054;50.866;4.636;2023-08-31T09:00:07;100777.16;;;20.50;60.97
79586;BME280;69054;50.866;4.636;2023-08-31T09:02:33;100785.22;;;20.52;61.87
79586;BME280;69054;50.866;4.636;2023-08-31T09:04:58;100794.63;;;20.73;60.48
79586;BME280;69054;50.866;4.636;2023-08-31T09:07:24;100783.91;;;21.62;57.28
79586;BME280;69054;50.866;4.636;2023-08-31T09:09:54;100773.47;;;21.90;57.05
79586;BME280;69054;50.866;4.636;2023-08-31T09:12:23;100786.75;;;22.56;55.83
79586;BME280;69054;50.866;4.636;2023-08-31T09:15:03;100793.09;;;22.31;54.23
79586;BME280;69054;50.866;4.636;2023-08-31T09:17:47;100791.47;;;22.45;54.36
79586;BME280;69054;50.866;4.636;2023-08-31T09:20:13;100785.47;;;22.01;55.67
79586;BME280;69054;50.866;4.636;2023-08-31T09:22:42;100798.66;;;22.31;55.33
79586;BME280;69054;50.866;4.636;2023-08-31T09:25:09;100795.84;;;22.26;55.84
79586;BME280;69054;50.866;4.636;2023-08-31T09:27:38;100793.19;;;22.67;53.99
79586;BME280;69054;50.866;4.636;2023-08-31T09:30:06;100800.66;;;21.77;56.46
79586;BME280;69054;50.866;4.636;2023-08-31T09:32:32;100801.50;;;22.52;54.20
79586;BME280;69054;50.866;4.636;2023-08-31T09:34:57;100801.53;;;22.67;54.40
79586;BME280;69054;50.866;4.636;2023-08-31T09:37:27;100807.09;;;23.54;51.59
79586;BME280;69054;50.866;4.636;2023-08-31T09:39:53;100808.88;;;24.11;49.50
79586;BME280;69054;50.866;4.636;2023-08-31T09:42:18;100798.16;;;24.28;49.85
79586;BME280;69054;50.866;4.636;2023-08-31T09:44:44;100800.88;;;23.78;50.63
79586;BME280;69054;50.866;4.636;2023-08-31T09:47:11;100799.28;;;22.54;53.05
79586;BME280;69054;50.866;4.636;2023-08-31T09:49:38;100798.28;;;22.07;53.32
79586;BME280;69054;50.866;4.636;2023-08-31T09:52:07;100797.63;;;22.58;53.09
79586;BME280;69054;50.866;4.636;2023-08-31T09:54:34;100799.91;;;23.17;50.39
79586;BME280;69054;50.866;4.636;2023-08-31T09:57:01;100793.19;;;22.98;51.97
79586;BME280;69054;50.866;4.636;2023-08-31T09:59:28;100787.00;;;23.52;50.71
79586;BME280;69054;50.866;4.636;2023-08-31T10:01:53;100799.75;;;23.89;48.54
79586;BME280;69054;50.866;4.636;2023-08-31T10:04:21;100798.94;;;23.73;48.57
79586;BME280;69054;50.866;4.636;2023-08-31T10:06:48;100792.50;;;23.88;47.74
79586;BME280;69054;50.866;4.636;2023-08-31T10:09:14;100785.00;;;23.79;48.45
79586;BME280;69054;50.866;4.636;2023-08-31T10:11:40;100782.00;;;24.25;48.36
79586;BME280;69054;50.866;4.636;2023-08-31T10:14:09;100794.47;;;23.78;48.44
79586;BME280;69054;50.866;4.636;2023-08-31T10:16:35;100791.94;;;23.81;49.28
79586;BME280;69054;50.866;4.636;2023-08-31T10:19:02;100799.44;;;23.96;49.78
79586;BME280;69054;50.866;4.636;2023-08-31T10:21:28;100803.13;;;24.86;46.76
79586;BME280;69054;50.866;4.636;2023-08-31T10:23:53;100799.50;;;24.86;45.62
79586;BME280;69054;50.866;4.636;2023-08-31T10:26:29;100800.00;;;25.22;45.61
79586;BME280;69054;50.866;4.636;2023-08-31T10:28:56;100794.03;;;23.29;48.49
79586;BME280;69054;50.866;4.636;2023-08-31T10:31:22;100792.09;;;23.14;50.06
79586;BME280;69054;50.866;4.636;2023-08-31T10:34:02;100794.22;;;24.39;47.12
79586;BME280;69054;50.866;4.636;2023-08-31T10:36:36;100800.91;;;25.18;45.13
79586;BME280;69054;50.866;4.636;2023-08-31T10:39:14;100788.56;;;23.84;49.26
79586;BME280;69054;50.866;4.636;2023-08-31T10:41:52;100793.44;;;22.71;51.44
79586;BME280;69054;50.866;4.636;2023-08-31T10:44:23;100793.16;;;21.83;54.38
79586;BME280;69054;50.866;4.636;2023-08-31T10:46:49;100789.56;;;22.77;51.30
79586;BME280;69054;50.866;4.636;2023-08-31T10:49:17;100797.63;;;23.50;50.24
79586;BME280;69054;50.866;4.636;2023-08-31T10:51:56;100790.06;;;22.43;52.43
79586;BME280;69054;50.866;4.636;2023-08-31T10:54:26;100788.56;;;22.09;53.55
79586;BME280;69054;50.866;4.636;2023-08-31T11:02:34;100790.44;;;25.33;44.79
79586;BME280;69054;50.866;4.636;2023-08-31T11:05:01;100786.28;;;24.12;48.47
79586;BME280;69054;50.866;4.636;2023-08-31T11:07:30;100785.38;;;22.64;51.84
79586;BME280;69054;50.866;4.636;2023-08-31T11:12:34;100780.78;;;22.06;52.20
79586;BME280;69054;50.866;4.636;2023-08-31T11:14:59;100774.78;;;23.33;49.99
79586;BME280;69054;50.866;4.636;2023-08-31T11:17:25;100780.91;;;24.21;47.48
79586;BME280;69054;50.866;4.636;2023-08-31T11:19:50;100788.53;;;24.94;45.58
79586;BME280;69054;50.866;4.636;2023-08-31T11:22:16;100797.25;;;24.88;45.88
79586;BME280;69054;50.866;4.636;2023-08-31T11:24:41;100793.16;;;25.39;45.46
79586;BME280;69054;50.866;4.636;2023-08-31T11:27:08;100794.38;;;25.81;44.51
79586;BME280;69054;50.866;4.636;2023-08-31T11:29:37;100798.91;;;25.23;44.77
79586;BME280;69054;50.866;4.636;2023-08-31T11:32:02;100797.06;;;25.43;44.88
79586;BME280;69054;50.866;4.636;2023-08-31T11:34:28;100777.81;;;24.22;46.91
79586;BME280;69054;50.866;4.636;2023-08-31T11:36:53;100783.47;;;24.57;47.37
79586;BME280;69054;50.866;4.636;2023-08-31T11:39:19;100794.13;;;25.24;45.69
79586;BME280;69054;50.866;4.636;2023-08-31T11:41:44;100777.75;;;24.33;47.75
79586;BME280;69054;50.866;4.636;2023-08-31T11:44:12;100781.47;;;22.65;50.18
79586;BME280;69054;50.866;4.636;2023-08-31T11:46:39;100774.28;;;21.85;52.38
79586;BME280;69054;50.866;4.636;2023-08-31T11:49:07;100775.56;;;21.62;52.26
79586;BME280;69054;50.866;4.636;2023-08-31T11:51:33;100774.94;;;20.74;54.72
79586;BME280;69054;50.866;4.636;2023-08-31T11:54:02;100779.59;;;20.19;55.54
79586;BME280;69054;50.866;4.636;2023-08-31T11:56:40;100779.03;;;20.17;57.56
79586;BME280;69054;50.866;4.636;2023-08-31T11:59:10;100784.03;;;20.43;56.82
79586;BME280;69054;50.866;4.636;2023-08-31T12:01:41;100775.19;;;20.46;55.86
79586;BME280;69054;50.866;4.636;2023-08-31T12:04:15;100776.16;;;20.89;53.56
79586;BME280;69054;50.866;4.636;2023-08-31T12:06:41;100777.31;;;22.88;50.29
79586;BME280;69054;50.866;4.636;2023-08-31T12:09:09;100773.97;;;24.18;46.53
79586;BME280;69054;50.866;4.636;2023-08-31T12:11:35;100778.22;;;24.50;45.20
79586;BME280;69054;50.866;4.636;2023-08-31T12:14:02;100777.09;;;24.51;44.97
79586;BME280;69054;50.866;4.636;2023-08-31T12:16:36;100765.25;;;23.60;46.31
79586;BME280;69054;50.866;4.636;2023-08-31T12:19:02;100773.00;;;22.19;51.35
79586;BME280;69054;50.866;4.636;2023-08-31T12:21:32;100779.50;;;21.28;53.58
79586;BME280;69054;50.866;4.636;2023-08-31T12:23:58;100770.97;;;20.65;55.36
79586;BME280;69054;50.866;4.636;2023-08-31T12:26:27;100773.47;;;20.39;55.59
79586;BME280;69054;50.866;4.636;2023-08-31T12:28:53;100774.66;;;19.99;57.41
79586;BME280;69054;50.866;4.636;2023-08-31T12:31:18;100766.63;;;19.59;59.81
79586;BME280;69054;50.866;4.636;2023-08-31T12:33:44;100767.47;;;19.20;60.52
79586;BME280;69054;50.866;4.636;2023-08-31T12:36:09;100778.06;;;18.89;62.04
79586;BME280;69054;50.866;4.636;2023-08-31T12:38:35;100775.50;;;18.71;60.47
79586;BME280;69054;50.866;4.636;2023-08-31T12:41:00;100778.00;;;18.55;60.54
79586;BME280;69054;50.866;4.636;2023-08-31T12:43:28;100773.66;;;18.59;61.37
79586;BME280;69054;50.866;4.636;2023-08-31T12:45:55;100769.72;;;18.55;60.89
79586;BME280;69054;50.866;4.636;2023-08-31T12:48:20;100766.75;;;18.45;61.50
79586;BME280;69054;50.866;4.636;2023-08-31T12:50:45;100770.28;;;18.57;61.54
79586;BME280;69054;50.866;4.636;2023-08-31T12:53:13;100768.97;;;18.77;61.20
79586;BME280;69054;50.866;4.636;2023-08-31T12:55:39;100758.34;;;19.03;61.01
79586;BME280;69054;50.866;4.636;2023-08-31T12:58:04;100757.78;;;19.40;59.89
79586;BME280;69054;50.866;4.636;2023-08-31T13:00:29;100765.09;;;19.46;59.14
79586;BME280;69054;50.866;4.636;2023-08-31T13:02:55;100754.59;;;19.70;58.21
79586;BME280;69054;50.866;4.636;2023-08-31T13:05:20;100759.88;;;19.94;58.63